Time;durP1;ratioP1;P1;durP2;ratioP2;P2;SDS_P1;SDS_P2;PMS_P1;PMS_P2;Temp;Humidity;BMP_temperature;BMP_pressure;BME280_temperature;BME280_humidity;BME280_pressure;Samples;Min_cycle;Max_cycle;Signal;HPM_P1;HPM_P2
2021/01/19 00:00:39;;;;;;;;;;;;;;;6.50;85.24;99132.94;5055333;28;19918;-79
2021/01/19 00:03:04;;;;;;;;;;;;;;;6.23;86.24;99122.19;5073727;28;19920;-80
2021/01/19 00:05:30;;;;;;;;;;;;;;;6.25;85.96;99110.22;5072822;28;20328;-80
2021/01/19 00:07:55;;;;;;;;;;;;;;;6.35;87.07;99117.78;5074120;28;19934;-80
2021/01/19 00:10:20;;;;;;;;;;;;;;;6.24;87.22;99116.19;5074626;28;19960;-81
2021/01/19 00:12:46;;;;;;;;;;;;;;;6.21;87.63;99118.81;5075299;28;19935;-80
2021/01/19 00:15:11;;;;;;;;;;;;;;;6.46;86.65;99115.94;5073620;28;20298;-81
2021/01/19 00:17:37;;;;;;;;;;;;;;;6.58;86.17;99115.75;5074020;28;19912;-80
2021/01/19 00:20:03;;;;;;;;;;;;;;;7.20;83.18;99115.66;5059401;28;19912;-80
2021/01/19 00:22:29;;;;;;;;;;;;;;;7.43;82.46;99102.44;5046639;28;19912;-80
2021/01/19 00:24:54;;;;;;;;;;;;;;;7.43;81.65;99102.44;5059156;28;19999;-80
2021/01/19 00:27:19;;;;;;;;;;;;;;;7.39;81.37;99098.28;5074438;28;19916;-81
2021/01/19 00:29:45;;;;;;;;;;;;;;;7.37;82.16;99096.59;5074167;28;20007;-81
2021/01/19 00:32:10;;;;;;;;;;;;;;;6.55;85.33;99097.91;5071971;28;19913;-81
2021/01/19 00:34:35;;;;;;;;;;;;;;;6.54;85.71;99085.94;5057136;28;19916;-81
2021/01/19 00:37:01;;;;;;;;;;;;;;;6.07;87.83;99082.34;5075917;28;19947;-81
2021/01/19 00:39:26;;;;;;;;;;;;;;;6.49;86.63;99080.91;5074510;28;20003;-81
2021/01/19 00:41:51;;;;;;;;;;;;;;;6.23;87.11;99083.81;5074042;28;19919;-81
2021/01/19 00:44:17;;;;;;;;;;;;;;;6.63;84.92;99078.13;5074492;28;19913;-81
2021/01/19 00:46:42;;;;;;;;;;;;;;;6.59;86.08;99071.41;5073978;28;20320;-81
2021/01/19 00:49:08;;;;;;;;;;;;;;;6.28;87.25;99071.81;5074349;28;20011;-81
2021/01/19 00:51:34;;;;;;;;;;;;;;;6.57;86.09;99068.03;5077321;28;19912;-81
2021/01/19 00:53:59;;;;;;;;;;;;;;;6.39;87.13;99058.06;5078368;28;20007;-81
2021/01/19 00:56:25;;;;;;;;;;;;;;;6.78;85.28;99045.53;5078155;28;19943;-81
2021/01/19 00:58:50;;;;;;;;;;;;;;;6.86;83.79;99044.50;5078251;28;19912;-80
2021/01/19 01:01:16;;;;;;;;;;;;;;;6.30;86.92;99043.69;5079054;28;19919;-81
2021/01/19 01:03:41;;;;;;;;;;;;;;;6.57;85.52;99042.44;5077917;28;19965;-81
2021/01/19 01:06:07;;;;;;;;;;;;;;;6.61;85.51;99038.94;5079506;28;19913;-81
2021/01/19 01:08:32;;;;;;;;;;;;;;;6.52;85.91;99045.91;5078317;28;19934;-80
2021/01/19 01:10:57;;;;;;;;;;;;;;;6.46;85.98;99031.50;5078028;28;20010;-80
2021/01/19 01:13:23;;;;;;;;;;;;;;;6.65;85.47;99032.91;5078920;28;19978;-81
2021/01/19 01:15:48;;;;;;;;;;;;;;;6.57;85.45;99032.19;5078001;28;19912;-80
2021/01/19 01:18:14;;;;;;;;;;;;;;;6.48;85.78;99032.34;5077970;28;19938;-81
2021/01/19 01:20:40;;;;;;;;;;;;;;;6.26;87.12;99027.50;5078965;28;19939;-80
2021/01/19 01:23:05;;;;;;;;;;;;;;;6.09;87.41;99037.16;5078148;28;20470;-80
2021/01/19 01:25:30;;;;;;;;;;;;;;;6.03;88.07;99032.09;5078197;28;19913;-81
2021/01/19 01:27:56;;;;;;;;;;;;;;;5.98;88.52;99021.09;5078052;28;19912;-81
2021/01/19 01:30:21;;;;;;;;;;;;;;;6.20;87.89;99027.63;5076901;28;20366;-81
2021/01/19 01:32:48;;;;;;;;;;;;;;;6.26;87.58;99024.97;5077306;28;19919;-80
2021/01/19 01:35:14;;;;;;;;;;;;;;;6.08;87.98;99022.66;5077312;28;19946;-81
2021/01/19 01:37:46;;;;;;;;;;;;;;;6.17;86.91;99011.47;5078413;28;19916;-81
2021/01/19 01:40:11;;;;;;;;;;;;;;;6.25;87.35;99005.38;5078027;28;19922;-81
2021/01/19 01:42:37;;;;;;;;;;;;;;;6.25;87.50;99010.50;5078174;28;20306;-81
2021/01/19 01:45:03;;;;;;;;;;;;;;;5.57;90.35;99010.50;5078706;28;19977;-80
2021/01/19 01:47:28;;;;;;;;;;;;;;;5.74;89.67;98997.50;5077751;28;20311;-81
2021/01/19 01:49:54;;;;;;;;;;;;;;;6.25;88.19;98990.03;5077770;28;20394;-80
2021/01/19 01:52:21;;;;;;;;;;;;;;;6.22;87.21;98989.22;5077945;28;19916;-80
2021/01/19 01:54:46;;;;;;;;;;;;;;;6.51;85.78;98983.66;5060701;28;19920;-80
2021/01/19 01:57:12;;;;;;;;;;;;;;;6.69;84.74;98980.81;5060326;28;19917;-81
2021/01/19 01:59:37;;;;;;;;;;;;;;;6.42;85.10;98968.47;5077218;28;19913;-80
2021/01/19 02:02:07;;;;;;;;;;;;;;;6.47;85.39;98964.13;5077363;28;19948;-80
2021/01/19 02:04:32;;;;;;;;;;;;;;;6.45;85.74;98964.16;5060366;28;19919;-81
2021/01/19 02:06:57;;;;;;;;;;;;;;;6.51;85.26;98959.81;5078900;28;19999;-80
2021/01/19 02:09:23;;;;;;;;;;;;;;;6.59;84.40;98958.81;5077171;28;19955;-81
2021/01/19 02:11:49;;;;;;;;;;;;;;;6.44;85.11;98943.72;5060447;28;20425;-80
2021/01/19 02:14:29;;;;;;;;;;;;;;;6.16;86.03;98944.16;5060576;28;20015;-80
2021/01/19 02:17:04;;;;;;;;;;;;;;;6.25;85.88;98933.78;5076997;28;19913;-81
2021/01/19 02:19:41;;;;;;;;;;;;;;;6.10;86.43;98930.59;5078595;28;19920;-80
2021/01/19 02:22:13;;;;;;;;;;;;;;;6.12;86.55;98918.66;5093420;28;19912;-80
2021/01/19 02:24:50;;;;;;;;;;;;;;;6.03;86.76;98917.06;5076982;28;19920;-81
2021/01/19 02:27:34;;;;;;;;;;;;;;;6.19;85.56;98915.97;5076808;28;20271;-80
2021/01/19 02:30:13;;;;;;;;;;;;;;;6.23;85.99;98907.38;5077194;28;19921;-80
2021/01/19 02:32:42;;;;;;;;;;;;;;;6.25;85.89;98908.19;5076826;28;19916;-81
2021/01/19 02:35:26;;;;;;;;;;;;;;;6.23;85.50;98907.38;5092902;28;19923;-81
2021/01/19 02:38:10;;;;;;;;;;;;;;;6.06;86.56;98914.44;5077577;28;19913;-80
2021/01/19 02:40:36;;;;;;;;;;;;;;;5.62;87.42;98916.75;5077273;28;19919;-80
2021/01/19 02:43:12;;;;;;;;;;;;;;;6.30;85.30;98904.72;5076706;28;19913;-80
2021/01/19 02:45:37;;;;;;;;;;;;;;;6.15;85.89;98895.56;5076363;28;19945;-80
2021/01/19 02:48:03;;;;;;;;;;;;;;;6.24;85.17;98895.44;5076641;28;19912;-80
2021/01/19 02:50:28;;;;;;;;;;;;;;;6.19;85.05;98892.94;5059738;28;19919;-80
2021/01/19 02:52:54;;;;;;;;;;;;;;;6.02;85.62;98882.13;5076317;28;20390;-80
2021/01/19 02:55:19;;;;;;;;;;;;;;;6.02;85.82;98874.47;5075882;28;19933;-81
2021/01/19 02:57:54;;;;;;;;;;;;;;;6.31;85.02;98875.72;5075685;28;19966;-80
2021/01/19 03:00:24;;;;;;;;;;;;;;;6.11;85.09;98869.19;5077225;28;20462;-80
2021/01/19 03:02:50;;;;;;;;;;;;;;;6.10;85.33;98859.84;5075633;28;20598;-80
2021/01/19 03:05:15;;;;;;;;;;;;;;;6.33;84.13;98863.75;5075792;28;19912;-80
2021/01/19 03:07:41;;;;;;;;;;;;;;;6.13;84.97;98854.69;5075732;28;19959;-80
2021/01/19 03:10:07;;;;;;;;;;;;;;;5.95;85.38;98860.94;5076766;28;19917;-80
2021/01/19 03:12:33;;;;;;;;;;;;;;;5.77;86.18;98849.28;5075446;28;19912;-81
2021/01/19 03:14:59;;;;;;;;;;;;;;;6.15;84.66;98855.50;5074824;28;19931;-80
2021/01/19 03:17:24;;;;;;;;;;;;;;;6.35;83.57;98836.44;5075026;28;19917;-81
2021/01/19 03:19:50;;;;;;;;;;;;;;;6.20;84.41;98843.50;5075993;28;19912;-80
2021/01/19 03:22:15;;;;;;;;;;;;;;;6.07;84.65;98831.81;5056697;28;19913;-80
2021/01/19 03:24:40;;;;;;;;;;;;;;;6.15;83.94;98818.88;5056808;28;20471;-80
2021/01/19 03:27:06;;;;;;;;;;;;;;;5.95;85.02;98821.75;5054628;28;19913;-80
2021/01/19 03:29:32;;;;;;;;;;;;;;;6.07;84.64;98816.47;5065022;28;19959;-80
2021/01/19 03:31:57;;;;;;;;;;;;;;;6.21;83.96;98806.84;5074968;28;19912;-80
2021/01/19 03:34:23;;;;;;;;;;;;;;;5.90;84.60;98806.47;5075150;28;19917;-80
2021/01/19 03:36:48;;;;;;;;;;;;;;;5.77;84.99;98794.75;5074510;28;19921;-80
2021/01/19 03:39:13;;;;;;;;;;;;;;;5.96;84.42;98796.19;5076541;28;19935;-80
2021/01/19 03:41:39;;;;;;;;;;;;;;;5.68;84.71;98788.09;5058608;28;20421;-80
2021/01/19 03:44:05;;;;;;;;;;;;;;;5.78;84.89;98781.97;5076308;28;19912;-80
2021/01/19 03:46:30;;;;;;;;;;;;;;;5.39;85.96;98770.66;5075055;28;19912;-80
2021/01/19 03:48:56;;;;;;;;;;;;;;;5.97;84.28;98779.13;5075755;28;19912;-80
2021/01/19 03:51:23;;;;;;;;;;;;;;;5.38;85.49;98754.50;5074666;28;19913;-80
2021/01/19 03:53:48;;;;;;;;;;;;;;;5.82;84.56;98750.38;5074201;28;19917;-80
2021/01/19 03:56:14;;;;;;;;;;;;;;;5.77;84.21;98747.06;5074433;28;19935;-80
2021/01/19 03:58:39;;;;;;;;;;;;;;;5.44;85.19;98744.16;5054298;28;19959;-80
2021/01/19 04:01:04;;;;;;;;;;;;;;;5.50;85.05;98733.03;5074095;28;19912;-80
2021/01/19 04:03:29;;;;;;;;;;;;;;;5.44;85.64;98728.00;5074479;28;19916;-80
2021/01/19 04:05:55;;;;;;;;;;;;;;;5.53;85.29;98722.75;5073896;28;19919;-80
2021/01/19 04:08:20;;;;;;;;;;;;;;;5.47;85.13;98716.91;5054958;28;19974;-80
2021/01/19 04:10:48;;;;;;;;;;;;;;;5.70;84.68;98722.47;5072733;28;20007;-80
2021/01/19 04:13:17;;;;;;;;;;;;;;;5.42;84.72;98715.25;5074870;28;19920;-80
2021/01/19 04:15:42;;;;;;;;;;;;;;;5.79;84.01;98696.78;5073557;28;19913;-80
2021/01/19 04:18:08;;;;;;;;;;;;;;;5.45;84.74;98689.69;5057863;28;19912;-80
2021/01/19 04:20:33;;;;;;;;;;;;;;;5.03;85.81;98678.41;5073997;28;19912;-80
2021/01/19 04:22:59;;;;;;;;;;;;;;;5.45;85.04;98673.50;5074894;28;21169;-80
2021/01/19 04:25:24;;;;;;;;;;;;;;;5.47;84.66;98671.75;5071881;28;19922;-80
2021/01/19 04:27:49;;;;;;;;;;;;;;;5.68;83.96;98667.16;5073787;28;19924;-80
2021/01/19 04:30:15;;;;;;;;;;;;;;;5.36;84.25;98659.19;5072819;28;20003;-80
2021/01/19 04:32:40;;;;;;;;;;;;;;;5.19;84.81;98650.94;5073161;28;19923;-80
2021/01/19 04:35:06;;;;;;;;;;;;;;;5.60;83.72;98642.59;5070747;28;20255;-80
2021/01/19 04:37:31;;;;;;;;;;;;;;;5.60;83.72;98637.47;5072251;28;19916;-81
2021/01/19 04:39:57;;;;;;;;;;;;;;;5.61;83.83;98634.06;5072536;28;20478;-80
2021/01/19 04:42:22;;;;;;;;;;;;;;;5.34;84.32;98624.34;5072717;28;19922;-79
2021/01/19 04:44:48;;;;;;;;;;;;;;;5.26;84.99;98621.06;5070488;28;19916;-80
2021/01/19 04:47:14;;;;;;;;;;;;;;;5.21;84.72;98603.28;5067228;28;19935;-80
2021/01/19 04:49:39;;;;;;;;;;;;;;;5.36;84.71;98597.91;5068652;28;20003;-80
2021/01/19 04:52:04;;;;;;;;;;;;;;;5.26;84.53;98596.38;5066065;28;20860;-79
2021/01/19 04:54:33;;;;;;;;;;;;;;;5.19;84.76;98589.69;5067237;28;20417;-80
2021/01/19 04:56:59;;;;;;;;;;;;;;;5.36;84.37;98582.59;5066934;28;19922;-80
2021/01/19 04:59:25;;;;;;;;;;;;;;;5.22;84.20;98574.31;5066258;28;20411;-79
2021/01/19 05:01:53;;;;;;;;;;;;;;;5.27;84.65;98582.75;5066969;28;19921;-80
2021/01/19 05:04:28;;;;;;;;;;;;;;;5.29;84.32;98570.81;5068885;28;19924;-81
2021/01/19 05:06:53;;;;;;;;;;;;;;;5.05;84.88;98576.31;5063978;28;19920;-80
2021/01/19 05:09:22;;;;;;;;;;;;;;;5.28;84.44;98568.28;5065093;28;19938;-80
2021/01/19 05:11:51;;;;;;;;;;;;;;;5.49;83.78;98556.81;5063505;28;19928;-80
2021/01/19 05:14:17;;;;;;;;;;;;;;;5.61;83.20;98552.34;5065138;28;19917;-80
2021/01/19 05:16:42;;;;;;;;;;;;;;;5.68;83.40;98545.41;5065468;28;20037;-80
2021/01/19 05:19:08;;;;;;;;;;;;;;;5.44;83.28;98544.13;5065434;28;19921;-80
2021/01/19 05:21:36;;;;;;;;;;;;;;;5.43;84.08;98540.75;5066234;28;19967;-80
2021/01/19 05:24:02;;;;;;;;;;;;;;;5.27;83.86;98526.59;5063780;28;19974;-80
2021/01/19 05:26:27;;;;;;;;;;;;;;;5.48;83.82;98527.06;5067007;28;20011;-80
2021/01/19 05:28:53;;;;;;;;;;;;;;;5.75;83.08;98513.75;5063950;28;19924;-80
2021/01/19 05:31:23;;;;;;;;;;;;;;;5.55;83.35;98515.84;5066123;28;19912;-80
2021/01/19 05:33:54;;;;;;;;;;;;;;;5.47;83.27;98503.22;5054358;28;19920;-81
2021/01/19 05:36:20;;;;;;;;;;;;;;;5.48;83.84;98509.19;5067191;28;20080;-80
2021/01/19 05:38:49;;;;;;;;;;;;;;;5.47;83.82;98502.38;5067619;28;19917;-79
2021/01/19 05:41:25;;;;;;;;;;;;;;;5.56;84.11;98499.63;5050954;28;19972;-80
2021/01/19 05:43:53;;;;;;;;;;;;;;;5.50;84.11;98492.13;5067692;28;19920;-80
2021/01/19 05:46:28;;;;;;;;;;;;;;;5.29;85.01;98488.25;5068422;28;19927;-81
2021/01/19 05:48:58;;;;;;;;;;;;;;;5.54;84.34;98481.81;5064281;28;19923;-80
2021/01/19 05:51:25;;;;;;;;;;;;;;;5.38;85.02;98473.59;5062663;28;19975;-80
2021/01/19 05:53:51;;;;;;;;;;;;;;;5.57;84.53;98457.91;5051285;28;20152;-80
2021/01/19 05:56:27;;;;;;;;;;;;;;;5.47;85.25;98461.50;5061865;28;19917;-82
2021/01/19 05:58:52;;;;;;;;;;;;;;;5.49;85.36;98449.56;5062704;28;20050;-80
2021/01/19 06:01:24;;;;;;;;;;;;;;;5.49;85.58;98449.56;5044687;28;20392;-84
2021/01/19 06:03:56;;;;;;;;;;;;;;;5.62;85.25;98435.66;5062469;28;20730;-83
2021/01/19 06:06:21;;;;;;;;;;;;;;;5.72;85.44;98431.19;5060966;28;19928;-82
2021/01/19 06:08:47;;;;;;;;;;;;;;;5.76;84.83;98425.97;5061325;28;20575;-83
2021/01/19 06:11:12;;;;;;;;;;;;;;;5.20;86.80;98418.63;5061523;28;19999;-83
2021/01/19 06:13:38;;;;;;;;;;;;;;;5.68;85.52;98409.13;5062249;28;19969;-82
2021/01/19 06:16:09;;;;;;;;;;;;;;;5.63;85.73;98409.22;5064153;28;19913;-84
2021/01/19 06:18:38;;;;;;;;;;;;;;;5.13;87.23;98381.34;5063134;28;19928;-85
2021/01/19 06:21:06;;;;;;;;;;;;;;;5.28;86.92;98385.28;5063827;28;20888;-84
2021/01/19 06:23:31;;;;;;;;;;;;;;;5.47;86.70;98361.91;5062985;28;19962;-83
2021/01/19 06:26:03;;;;;;;;;;;;;;;5.35;86.56;98363.03;5049549;28;19995;-83
2021/01/19 06:28:28;;;;;;;;;;;;;;;5.06;87.91;98368.72;5063990;28;19916;-83
2021/01/19 06:30:54;;;;;;;;;;;;;;;5.13;87.73;98365.16;5064132;28;19943;-83
2021/01/19 06:33:20;;;;;;;;;;;;;;;5.24;87.41;98351.34;5063169;28;20116;-83
2021/01/19 06:35:46;;;;;;;;;;;;;;;5.26;87.52;98366.59;5063427;28;19916;-83
2021/01/19 06:38:11;;;;;;;;;;;;;;;5.38;87.35;98348.50;5064746;28;19920;-83
2021/01/19 06:40:36;;;;;;;;;;;;;;;5.32;87.12;98366.50;5061412;28;20437;-83
2021/01/19 06:43:03;;;;;;;;;;;;;;;5.62;86.30;98369.25;5062903;28;20013;-82
2021/01/19 06:45:28;;;;;;;;;;;;;;;5.24;86.89;98361.56;5055227;28;19921;-81
2021/01/19 06:47:54;;;;;;;;;;;;;;;5.19;87.68;98339.53;5059543;28;20402;-82
2021/01/19 06:50:21;;;;;;;;;;;;;;;5.33;87.26;98327.31;5059711;28;19979;-82
2021/01/19 06:53:06;;;;;;;;;;;;;;;5.34;86.82;98330.72;5061478;28;20458;-82
2021/01/19 06:55:38;;;;;;;;;;;;;;;5.43;86.49;98330.53;5045429;28;19928;-82
2021/01/19 06:58:11;;;;;;;;;;;;;;;5.48;86.66;98333.81;5061127;28;19978;-82
2021/01/19 07:00:37;;;;;;;;;;;;;;;5.48;86.56;98322.75;5061047;28;19963;-82
2021/01/19 07:03:03;;;;;;;;;;;;;;;5.36;86.80;98291.50;5060818;28;19920;-83
2021/01/19 07:05:29;;;;;;;;;;;;;;;5.50;86.25;98303.13;5060392;28;19951;-82
2021/01/19 07:07:54;;;;;;;;;;;;;;;5.37;86.81;98308.50;5061303;28;20252;-83
2021/01/19 07:10:45;;;;;;;;;;;;;;;5.73;85.76;98290.66;5063788;28;19920;-82
2021/01/19 07:13:19;;;;;;;;;;;;;;;5.59;86.20;98274.81;5057960;28;19932;-81
2021/01/19 07:16:06;;;;;;;;;;;;;;;5.59;86.51;98272.28;5059908;28;20502;-81
2021/01/19 07:18:45;;;;;;;;;;;;;;;5.53;86.64;98251.97;5057327;28;19927;-83
2021/01/19 07:21:14;;;;;;;;;;;;;;;5.74;85.87;98235.28;5053990;28;20848;-82
2021/01/19 07:23:59;;;;;;;;;;;;;;;5.55;86.77;98240.84;5029092;28;19935;-81
2021/01/19 07:26:50;;;;;;;;;;;;;;;5.62;86.70;98221.09;5063814;28;20011;-82
2021/01/19 07:29:16;;;;;;;;;;;;;;;5.35;87.65;98222.59;5062115;28;19916;-82
2021/01/19 07:31:41;;;;;;;;;;;;;;;5.41;87.05;98218.19;5065354;28;20003;-81
2021/01/19 07:34:07;;;;;;;;;;;;;;;5.55;86.54;98219.59;5065762;28;20012;-82
2021/01/19 07:36:32;;;;;;;;;;;;;;;5.49;86.92;98204.41;5065993;28;20305;-81
2021/01/19 07:38:58;;;;;;;;;;;;;;;5.62;86.47;98203.22;5061292;28;20453;-82
2021/01/19 07:41:30;;;;;;;;;;;;;;;5.64;86.54;98214.25;5068293;28;20527;-81
2021/01/19 07:43:56;;;;;;;;;;;;;;;5.77;85.70;98225.84;5068029;28;19919;-82
2021/01/19 07:46:24;;;;;;;;;;;;;;;5.28;87.38;98206.59;5069000;28;19913;-83
2021/01/19 07:49:00;;;;;;;;;;;;;;;5.44;87.13;98209.63;5062653;28;19924;-82
2021/01/19 07:51:25;;;;;;;;;;;;;;;5.38;87.27;98191.88;5063822;28;19917;-82
2021/01/19 07:53:51;;;;;;;;;;;;;;;5.39;86.97;98183.38;5062384;28;20299;-82
2021/01/19 07:56:23;;;;;;;;;;;;;;;5.38;87.62;98179.97;5062073;28;19964;-82
2021/01/19 07:58:49;;;;;;;;;;;;;;;5.72;86.40;98166.34;5049292;28;19917;-83
2021/01/19 08:01:24;;;;;;;;;;;;;;;5.39;87.46;98161.22;5058856;28;20397;-82
2021/01/19 08:03:49;;;;;;;;;;;;;;;5.79;86.65;98165.31;5048613;28;19916;-82
2021/01/19 08:06:15;;;;;;;;;;;;;;;5.76;86.13;98156.91;5061898;28;20642;-83
2021/01/19 08:08:41;;;;;;;;;;;;;;;5.45;87.44;98147.44;5055717;28;19921;-83
2021/01/19 08:11:06;;;;;;;;;;;;;;;5.94;85.94;98150.47;5049523;28;20733;-82
2021/01/19 08:13:32;;;;;;;;;;;;;;;5.68;86.92;98144.34;5046384;28;20003;-84
2021/01/19 08:16:04;;;;;;;;;;;;;;;5.67;87.20;98152.84;5060071;28;19920;-84
2021/01/19 08:18:35;;;;;;;;;;;;;;;5.75;86.70;98140.72;5047735;28;19928;-84
2021/01/19 08:21:04;;;;;;;;;;;;;;;5.55;87.38;98127.66;5045028;28;20091;-82
2021/01/19 08:23:32;;;;;;;;;;;;;;;5.55;88.04;98148.06;5062219;28;20015;-83
2021/01/19 08:26:16;;;;;;;;;;;;;;;5.63;87.23;98134.22;5044557;28;20358;-84
2021/01/19 08:28:42;;;;;;;;;;;;;;;5.63;87.12;98151.25;5043673;28;19916;-85
2021/01/19 08:31:14;;;;;;;;;;;;;;;5.93;86.30;98138.53;5046711;28;19916;-82
2021/01/19 08:33:40;;;;;;;;;;;;;;;5.49;87.92;98135.44;5048526;28;20023;-84
2021/01/19 08:36:05;;;;;;;;;;;;;;;5.44;88.16;98133.84;5061258;28;20008;-84
2021/01/19 08:38:31;;;;;;;;;;;;;;;5.64;87.89;98122.28;5059850;28;19917;-85
2021/01/19 08:40:56;;;;;;;;;;;;;;;6.04;86.82;98132.31;5061131;28;19916;-83
2021/01/19 08:43:22;;;;;;;;;;;;;;;5.62;88.06;98124.03;5044976;28;19913;-84
2021/01/19 08:45:48;;;;;;;;;;;;;;;5.61;88.43;98119.78;5060947;28;20410;-84
2021/01/19 08:48:13;;;;;;;;;;;;;;;5.64;87.72;98128.22;5059005;28;20007;-85
2021/01/19 08:50:39;;;;;;;;;;;;;;;5.84;87.09;98129.44;5042978;28;19917;-84
2021/01/19 08:53:08;;;;;;;;;;;;;;;5.37;88.49;98091.47;5045017;28;19928;-84
2021/01/19 08:55:33;;;;;;;;;;;;;;;5.71;88.24;98110.19;5060727;28;19960;-85
2021/01/19 08:57:59;;;;;;;;;;;;;;;5.52;88.42;98122.59;5027787;28;19962;-84
2021/01/19 09:00:28;;;;;;;;;;;;;;;5.80;87.34;98118.44;5039682;28;19925;-83
2021/01/19 09:02:55;;;;;;;;;;;;;;;5.61;88.23;98102.78;5037366;28;19952;-85
2021/01/19 09:05:28;;;;;;;;;;;;;;;5.81;87.41;98116.72;5043022;28;19982;-84
2021/01/19 09:07:54;;;;;;;;;;;;;;;5.43;88.71;98127.06;5053889;28;19963;-81
2021/01/19 09:10:23;;;;;;;;;;;;;;;5.73;87.28;98109.28;5054454;28;19920;-83
2021/01/19 09:12:49;;;;;;;;;;;;;;;5.62;87.69;98108.72;5041755;28;20402;-83
2021/01/19 09:15:15;;;;;;;;;;;;;;;5.59;87.36;98108.81;5044651;28;19920;-82
2021/01/19 09:17:40;;;;;;;;;;;;;;;5.58;87.09;98096.91;5060208;28;19912;-82
2021/01/19 09:20:09;;;;;;;;;;;;;;;5.49;87.98;98090.31;5060470;28;19951;-83
2021/01/19 09:22:38;;;;;;;;;;;;;;;5.29;87.80;98079.78;5057920;28;19919;-83
2021/01/19 09:25:03;;;;;;;;;;;;;;;5.31;88.10;98075.47;5043219;28;19936;-81
2021/01/19 09:27:29;;;;;;;;;;;;;;;5.11;89.00;98035.13;5059236;28;19916;-82
2021/01/19 09:30:04;;;;;;;;;;;;;;;5.07;88.86;98059.91;5059316;28;20428;-84
2021/01/19 09:32:30;;;;;;;;;;;;;;;4.90;89.91;98022.03;5059668;28;19971;-85
2021/01/19 09:34:55;;;;;;;;;;;;;;;5.09;89.07;98062.44;5045214;28;20291;-85
2021/01/19 09:37:21;;;;;;;;;;;;;;;4.98;89.44;98050.78;5058637;28;19917;-82
2021/01/19 09:39:46;;;;;;;;;;;;;;;5.22;88.98;98044.22;5062519;28;19917;-85
2021/01/19 09:42:12;;;;;;;;;;;;;;;5.28;88.36;98043.22;5046300;28;19924;-84
2021/01/19 09:44:37;;;;;;;;;;;;;;;4.93;89.56;98046.66;5064892;28;19946;-82
2021/01/19 09:47:03;;;;;;;;;;;;;;;4.99;89.03;98032.03;5048152;28;19917;-82
2021/01/19 09:49:29;;;;;;;;;;;;;;;5.38;88.82;98029.34;5067596;28;19916;-84
2021/01/19 09:51:54;;;;;;;;;;;;;;;5.40;87.36;98027.56;5050985;28;19916;-84
2021/01/19 09:57:26;;;;;;;;;;;;;;;5.14;89.50;98024.88;5068093;28;20003;-86
2021/01/19 09:59:51;;;;;;;;;;;;;;;5.41;87.86;98003.72;5067213;28;19916;-82
2021/01/19 10:02:26;;;;;;;;;;;;;;;5.30;88.02;98007.44;5068180;28;20700;-82
2021/01/19 10:04:59;;;;;;;;;;;;;;;5.53;88.04;98017.03;5051152;28;20295;-84
2021/01/19 10:07:27;;;;;;;;;;;;;;;5.74;87.05;98003.66;5065942;28;20005;-81
2021/01/19 10:09:52;;;;;;;;;;;;;;;5.54;87.60;98005.91;5069421;28;19948;-80
2021/01/19 10:12:18;;;;;;;;;;;;;;;5.36;89.27;98008.13;5065869;28;20126;-80
2021/01/19 10:14:44;;;;;;;;;;;;;;;5.24;88.54;97995.66;5067196;28;20342;-82
2021/01/19 10:17:11;;;;;;;;;;;;;;;5.47;88.43;97992.47;5068018;28;19934;-81
2021/01/19 10:19:37;;;;;;;;;;;;;;;5.39;88.47;97984.22;5069136;28;19999;-81
2021/01/19 10:22:04;;;;;;;;;;;;;;;5.54;88.56;97988.91;5061506;28;20566;-80
2021/01/19 10:24:30;;;;;;;;;;;;;;;5.58;88.26;97992.19;5082720;28;19972;-80
2021/01/19 10:27:08;;;;;;;;;;;;;;;5.35;88.86;97978.34;5067823;28;19960;-81
2021/01/19 10:29:35;;;;;;;;;;;;;;;5.20;88.86;97968.53;5049449;28;19924;-82
2021/01/19 10:32:02;;;;;;;;;;;;;;;5.56;88.22;97992.22;5069839;28;19920;-81
2021/01/19 10:34:35;;;;;;;;;;;;;;;5.68;88.11;97985.97;5067612;28;19974;-80
2021/01/19 10:37:01;;;;;;;;;;;;;;;5.76;87.74;97986.56;5079418;28;19917;-80
2021/01/19 10:39:27;;;;;;;;;;;;;;;5.80;87.77;97975.38;5068122;28;19916;-80
2021/01/19 10:41:53;;;;;;;;;;;;;;;5.84;87.45;97981.25;5067677;28;19916;-81
2021/01/19 10:44:21;;;;;;;;;;;;;;;5.91;87.47;97969.97;5067724;28;19921;-80
2021/01/19 10:46:53;;;;;;;;;;;;;;;5.96;86.86;97964.75;5052159;28;20047;-80
2021/01/19 10:49:19;;;;;;;;;;;;;;;5.85;87.90;97957.34;5068724;28;20436;-81
2021/01/19 10:51:48;;;;;;;;;;;;;;;5.86;87.75;97964.97;5069527;28;19971;-80
2021/01/19 10:54:16;;;;;;;;;;;;;;;5.68;88.48;97962.97;5066938;28;19920;-81
2021/01/19 10:56:42;;;;;;;;;;;;;;;6.07;88.20;97983.16;5067308;28;19917;-80
2021/01/19 10:59:08;;;;;;;;;;;;;;;6.22;88.42;97979.28;5061076;28;19921;-81
2021/01/19 11:01:33;;;;;;;;;;;;;;;5.96;88.08;97955.34;5062367;28;19920;-81
2021/01/19 11:03:59;;;;;;;;;;;;;;;5.68;88.95;97959.56;5068374;28;19919;-81
2021/01/19 11:06:51;;;;;;;;;;;;;;;5.92;87.86;97958.00;5067521;28;19921;-81
2021/01/19 11:09:17;;;;;;;;;;;;;;;5.67;90.16;97956.16;5072672;28;19916;-80
2021/01/19 11:11:42;;;;;;;;;;;;;;;5.90;89.43;97949.56;5067377;28;20342;-81
2021/01/19 11:14:08;;;;;;;;;;;;;;;6.05;88.96;97949.13;5068630;28;20026;-81
2021/01/19 11:16:39;;;;;;;;;;;;;;;6.18;88.13;97945.31;5069278;28;20302;-81
2021/01/19 11:19:05;;;;;;;;;;;;;;;5.91;89.28;97946.97;5070638;28;19916;-81
2021/01/19 11:21:31;;;;;;;;;;;;;;;6.04;89.16;97952.53;5070334;28;19981;-81
2021/01/19 11:23:57;;;;;;;;;;;;;;;6.53;87.16;97940.78;5071219;28;20023;-81
2021/01/19 11:26:23;;;;;;;;;;;;;;;6.38;88.22;97947.22;5052866;28;19965;-81
2021/01/19 11:28:48;;;;;;;;;;;;;;;6.32;87.50;97936.34;5071999;28;19912;-80
2021/01/19 11:31:21;;;;;;;;;;;;;;;6.30;88.60;97945.81;5069776;28;20314;-80
2021/01/19 11:33:47;;;;;;;;;;;;;;;6.37;88.79;97950.66;5044269;28;19925;-80
2021/01/19 11:45:28;;;;;;;;;;;;;;;6.78;87.81;97968.13;5071554;28;19976;-80
2021/01/19 11:50:57;;;;;;;;;;;;;;;6.27;90.60;97975.69;5071675;28;19928;-79
2021/01/19 11:56:32;;;;;;;;;;;;;;;6.73;89.21;97945.25;5069831;28;19946;-80
2021/01/19 12:02:00;;;;;;;;;;;;;;;6.73;88.47;97946.94;5069639;28;19923;-80
2021/01/19 12:07:28;;;;;;;;;;;;;;;6.65;89.69;97950.59;5070996;28;19927;-80
2021/01/19 12:12:57;;;;;;;;;;;;;;;6.89;89.49;97953.25;5072026;28;20003;-80
2021/01/19 12:18:26;;;;;;;;;;;;;;;7.25;89.19;97940.03;5071551;28;19919;-80
2021/01/19 12:27:28;;;;;;;;;;;;;;;7.18;88.71;97936.03;5069538;28;19927;-80
2021/01/19 12:32:56;;;;;;;;;;;;;;;6.89;90.99;97935.34;5067426;28;19975;-81
2021/01/19 12:38:25;;;;;;;;;;;;;;;7.23;89.72;97937.56;5067032;28;19923;-80
2021/01/19 12:43:53;;;;;;;;;;;;;;;7.09;89.96;97903.91;5067777;28;19923;-81
2021/01/19 12:49:21;;;;;;;;;;;;;;;7.29;89.46;97932.19;5071793;28;19978;-81
2021/01/19 12:54:49;;;;;;;;;;;;;;;7.45;89.66;97917.09;5071562;28;20005;-80
2021/01/19 13:00:18;;;;;;;;;;;;;;;7.47;90.37;97925.56;5071832;28;19923;-81
2021/01/19 13:05:46;;;;;;;;;;;;;;;7.45;91.01;97939.31;5071315;28;19924;-81
2021/01/19 13:11:14;;;;;;;;;;;;;;;7.67;88.93;97899.22;5071890;28;19950;-81
2021/01/19 13:16:43;;;;;;;;;;;;;;;7.62;91.64;97924.19;5071062;28;19919;-81
2021/01/19 13:22:11;;;;;;;;;;;;;;;7.73;90.02;97916.06;5072559;28;20030;-80
2021/01/19 13:31:13;;;;;;;;;;;;;;;8.09;91.47;97912.97;5069060;28;20053;-81
2021/01/19 13:36:42;;;;;;;;;;;;;;;7.70;93.47;97913.63;5070861;28;19919;-80
2021/01/19 13:42:10;;;;;;;;;;;;;;;8.25;91.66;97893.50;5070463;28;19926;-80
2021/01/19 13:47:39;;;;;;;;;;;;;;;8.49;91.57;97934.50;5071192;28;19924;-81
2021/01/19 13:53:07;;;;;;;;;;;;;;;8.73;91.82;97938.63;5071204;28;19990;-80
2021/01/19 13:58:36;;;;;;;;;;;;;;;8.68;91.14;97927.72;5069795;28;19954;-80
2021/01/19 14:04:04;;;;;;;;;;;;;;;8.68;93.68;97950.81;5066234;28;19923;-80
2021/01/19 14:09:33;;;;;;;;;;;;;;;8.83;92.08;97945.97;5069967;28;19976;-80
2021/01/19 14:15:01;;;;;;;;;;;;;;;8.82;92.77;97954.53;5070032;28;20393;-80
2021/01/19 14:20:30;;;;;;;;;;;;;;;8.90;93.20;97962.78;5070881;28;19982;-80
2021/01/19 14:25:58;;;;;;;;;;;;;;;8.78;93.68;97958.97;5070491;28;20287;-80
2021/01/19 14:34:58;;;;;;;;;;;;;;;8.89;93.30;97984.19;5070743;28;20065;-79
2021/01/19 14:40:27;;;;;;;;;;;;;;;9.09;92.84;97955.94;5072083;28;19974;-80
2021/01/19 14:45:55;;;;;;;;;;;;;;;8.83;94.59;97984.47;5072038;28;20061;-80
2021/01/19 14:51:24;;;;;;;;;;;;;;;8.86;95.15;97986.91;5073866;28;19919;-79
2021/01/19 14:56:53;;;;;;;;;;;;;;;9.12;92.65;97978.09;5072071;28;19923;-80
2021/01/19 15:02:21;;;;;;;;;;;;;;;9.47;91.72;97997.16;5071529;28;20052;-80
2021/01/19 15:07:53;;;;;;;;;;;;;;;9.12;94.43;97988.38;5071947;28;20463;-80